createdAt,value
2022-09-26T00:01:38.027Z,11.80
2022-09-26T00:04:11.332Z,11.90
2022-09-26T00:06:39.245Z,11.80
2022-09-26T00:09:07.192Z,12.00
2022-09-26T00:11:35.075Z,11.80
2022-09-26T00:14:10.611Z,11.80
2022-09-26T00:16:39.392Z,11.80
2022-09-26T00:19:08.189Z,11.80
2022-09-26T00:21:36.388Z,11.90
2022-09-26T00:24:04.399Z,11.90
2022-09-26T00:26:34.053Z,11.70
2022-09-26T00:29:09.893Z,11.80
2022-09-26T00:31:41.573Z,11.80
2022-09-26T00:34:15.104Z,11.80
2022-09-26T00:36:42.428Z,11.80
2022-09-26T00:39:13.821Z,11.90
2022-09-26T00:41:41.624Z,11.90
2022-09-26T00:44:40.073Z,11.90
2022-09-26T00:47:25.047Z,11.90
2022-09-26T00:49:58.117Z,11.90
2022-09-26T00:52:32.341Z,11.80
2022-09-26T00:55:03.064Z,11.80
2022-09-26T00:57:37.008Z,11.90
2022-09-26T01:00:10.813Z,11.90
2022-09-26T01:02:39.282Z,11.80
2022-09-26T01:05:08.391Z,11.80
2022-09-26T01:07:35.976Z,11.80
2022-09-26T01:10:05.359Z,11.80
2022-09-26T01:12:33.042Z,11.80
2022-09-26T01:15:00.486Z,11.80
2022-09-26T01:17:28.052Z,11.80
2022-09-26T01:19:55.167Z,11.80
2022-09-26T01:22:42.643Z,11.80
2022-09-26T01:25:44.203Z,11.80
2022-09-26T01:28:34.503Z,11.80
2022-09-26T01:31:37.501Z,11.70
2022-09-26T01:34:14.708Z,11.70
2022-09-26T01:37:00.648Z,11.70
2022-09-26T01:39:56.103Z,11.70
2022-09-26T01:42:37.852Z,11.70
2022-09-26T01:45:17.978Z,11.60
2022-09-26T01:47:55.747Z,11.80
2022-09-26T01:50:37.916Z,11.70
2022-09-26T01:53:12.895Z,11.60
2022-09-26T01:56:14.478Z,11.70
2022-09-26T01:58:53.067Z,11.70
2022-09-26T02:01:23.337Z,11.70
2022-09-26T02:03:56.139Z,11.70
2022-09-26T02:06:39.927Z,11.70
2022-09-26T02:09:48.820Z,11.70
2022-09-26T02:12:24.694Z,11.70
2022-09-26T02:14:56.113Z,11.70
2022-09-26T02:17:31.115Z,11.60
2022-09-26T02:20:10.872Z,11.70
2022-09-26T02:22:38.594Z,11.70
2022-09-26T02:25:08.383Z,11.60
2022-09-26T02:27:35.621Z,11.60
2022-09-26T02:30:05.325Z,11.60
2022-09-26T02:32:33.100Z,11.60
2022-09-26T02:35:22.158Z,11.60
2022-09-26T02:37:49.826Z,11.60
2022-09-26T02:40:18.975Z,11.60
2022-09-26T02:43:12.361Z,11.60
2022-09-26T02:45:57.209Z,11.70
2022-09-26T02:48:33.674Z,11.60
2022-09-26T02:51:31.124Z,11.60
2022-09-26T02:54:14.691Z,11.60
2022-09-26T02:57:10.974Z,11.60
2022-09-26T02:59:56.443Z,11.60
2022-09-26T03:02:38.464Z,11.60
2022-09-26T03:05:27.225Z,11.60
2022-09-26T03:08:00.381Z,11.50
2022-09-26T03:10:31.177Z,11.50
2022-09-26T03:13:04.911Z,11.40
2022-09-26T03:15:34.331Z,11.50
2022-09-26T03:18:03.483Z,11.40
2022-09-26T03:20:30.817Z,11.50
2022-09-26T03:22:58.061Z,11.40
2022-09-26T03:25:27.508Z,11.40
2022-09-26T03:28:10.469Z,11.40
2022-09-26T03:30:39.611Z,11.40
2022-09-26T03:33:21.453Z,11.40
2022-09-26T03:35:49.429Z,11.40
2022-09-26T03:38:16.964Z,11.50
2022-09-26T03:41:07.491Z,11.40
2022-09-26T03:43:57.618Z,11.40
2022-09-26T03:46:28.423Z,11.40
2022-09-26T03:48:55.967Z,11.40
2022-09-26T03:51:23.137Z,11.40
2022-09-26T03:53:50.416Z,11.40
2022-09-26T03:56:21.075Z,11.40
2022-09-26T03:58:51.746Z,11.40
2022-09-26T04:01:21.552Z,11.40
2022-09-26T04:03:51.026Z,11.40
2022-09-26T04:06:20.531Z,11.40
2022-09-26T04:08:50.859Z,11.40
2022-09-26T04:11:21.735Z,11.40
2022-09-26T04:13:52.450Z,11.50
2022-09-26T04:16:24.566Z,11.50
2022-09-26T04:19:09.333Z,11.40
2022-09-26T04:21:40.014Z,11.40
2022-09-26T04:24:15.600Z,11.50
2022-09-26T04:26:44.443Z,11.60
2022-09-26T04:29:11.764Z,11.50
2022-09-26T04:31:56.865Z,11.50
2022-09-26T04:34:31.106Z,11.50
2022-09-26T04:37:00.463Z,11.50
2022-09-26T04:39:27.765Z,11.40
2022-09-26T04:41:55.146Z,11.50
2022-09-26T04:44:22.491Z,11.40
2022-09-26T04:46:50.200Z,11.50
2022-09-26T04:49:19.981Z,11.50
2022-09-26T04:51:48.427Z,11.40
2022-09-26T04:54:16.273Z,11.50
2022-09-26T04:56:43.818Z,11.50
2022-09-26T04:59:11.012Z,11.50
2022-09-26T05:02:06.804Z,11.50
2022-09-26T05:04:42.056Z,11.40
2022-09-26T05:07:09.188Z,11.40
2022-09-26T05:09:37.550Z,11.30
2022-09-26T05:12:13.233Z,11.30
2022-09-26T05:14:44.588Z,11.40
2022-09-26T05:17:11.864Z,11.40
2022-09-26T05:19:40.274Z,11.40
2022-09-26T05:22:34.261Z,11.40
2022-09-26T05:25:22.966Z,11.40
2022-09-26T05:27:55.065Z,11.40
2022-09-26T05:30:22.218Z,11.40
2022-09-26T05:32:49.810Z,11.40
2022-09-26T05:35:17.641Z,11.50
2022-09-26T05:37:45.833Z,11.40
2022-09-26T05:40:32.643Z,11.40
2022-09-26T05:43:03.933Z,11.40
2022-09-26T05:45:31.416Z,11.40
2022-09-26T05:48:01.109Z,11.50
2022-09-26T05:50:28.420Z,11.40
2022-09-26T05:53:00.094Z,11.40
2022-09-26T05:55:28.943Z,11.40
2022-09-26T05:58:32.917Z,11.40
2022-09-26T06:01:26.007Z,11.40
2022-09-26T06:04:11.324Z,11.50
2022-09-26T06:06:55.728Z,11.60
2022-09-26T06:09:23.125Z,11.60
2022-09-26T06:11:52.915Z,11.60
2022-09-26T06:14:20.958Z,11.60
2022-09-26T06:16:49.257Z,11.70
2022-09-26T06:19:20.588Z,11.70
2022-09-26T06:21:50.854Z,11.70
2022-09-26T06:24:19.237Z,11.70
2022-09-26T06:26:48.839Z,11.70
2022-09-26T06:29:16.119Z,11.80
2022-09-26T06:31:43.624Z,11.80
2022-09-26T06:34:12.735Z,11.90
2022-09-26T06:36:49.407Z,12.00
2022-09-26T06:39:16.776Z,12.10
2022-09-26T06:41:46.045Z,12.10
2022-09-26T06:44:42.535Z,12.10
2022-09-26T06:47:15.726Z,12.20
2022-09-26T06:49:46.305Z,12.10
2022-09-26T06:52:26.731Z,12.10
2022-09-26T06:54:56.687Z,12.10
2022-09-26T06:57:23.885Z,12.10
2022-09-26T06:59:51.109Z,12.30
2022-09-26T07:02:27.189Z,12.30
2022-09-26T07:05:03.344Z,12.30
2022-09-26T07:07:41.842Z,12.20
2022-09-26T07:10:18.565Z,12.20
2022-09-26T07:13:01.740Z,12.20
2022-09-26T07:15:32.917Z,12.20
2022-09-26T07:18:06.269Z,12.20
2022-09-26T07:20:56.827Z,12.30
2022-09-26T07:23:36.803Z,12.30
2022-09-26T07:26:04.016Z,12.40
2022-09-26T07:28:31.318Z,12.50
2022-09-26T07:31:00.583Z,12.40
2022-09-26T07:33:54.169Z,12.40
2022-09-26T07:36:23.003Z,12.50
2022-09-26T07:38:50.799Z,12.50
2022-09-26T07:41:19.560Z,12.50
2022-09-26T07:44:46.229Z,12.50
2022-09-26T07:46:52.928Z,12.60
2022-09-26T07:49:38.780Z,12.60
2022-09-26T07:52:24.623Z,12.70
2022-09-26T07:55:12.911Z,12.70
2022-09-26T07:58:06.994Z,12.90
2022-09-26T08:00:45.634Z,12.90
2022-09-26T08:03:26.087Z,13.10
2022-09-26T08:05:59.664Z,13.20
2022-09-26T08:08:27.324Z,13.40
2022-09-26T08:11:04.019Z,13.40
2022-09-26T08:13:47.729Z,13.60
2022-09-26T08:16:29.371Z,13.70
2022-09-26T08:18:59.614Z,13.70
2022-09-26T08:21:26.908Z,13.60
2022-09-26T08:23:57.283Z,13.60
2022-09-26T08:26:44.663Z,13.70
2022-09-26T08:29:17.834Z,13.60
2022-09-26T08:31:47.730Z,13.60
2022-09-26T08:34:15.229Z,13.70
2022-09-26T08:36:52.062Z,13.50
2022-09-26T08:39:39.289Z,13.50
2022-09-26T08:43:04.221Z,13.40
2022-09-26T08:46:12.584Z,13.40
2022-09-26T08:49:44.276Z,13.50
2022-09-26T08:52:36.048Z,13.70
2022-09-26T08:55:26.908Z,13.80
2022-09-26T08:58:13.278Z,13.80
2022-09-26T09:00:40.825Z,13.70
2022-09-26T09:03:25.979Z,13.70
2022-09-26T09:06:28.558Z,13.80
2022-09-26T09:08:57.595Z,13.80
2022-09-26T09:11:42.261Z,14.20
2022-09-26T09:14:35.724Z,14.40
2022-09-26T09:17:55.153Z,14.60
2022-09-26T09:21:08.475Z,14.80
2022-09-26T09:24:17.416Z,14.80
2022-09-26T09:30:17.559Z,14.90
2022-09-26T09:33:10.496Z,15.00
2022-09-26T09:36:08.753Z,15.40
2022-09-26T09:38:46.714Z,15.40
2022-09-26T09:41:25.835Z,15.40
2022-09-26T09:44:32.179Z,15.50
2022-09-26T09:47:00.437Z,15.20
2022-09-26T09:49:28.125Z,15.20
2022-09-26T09:52:01.119Z,15.40
2022-09-26T09:54:46.378Z,15.40
2022-09-26T09:57:38.296Z,15.50
2022-09-26T10:00:08.408Z,15.60
2022-09-26T10:03:18.386Z,15.60
2022-09-26T10:05:48.611Z,15.40
2022-09-26T10:08:41.605Z,15.30
2022-09-26T10:11:42.244Z,15.20
2022-09-26T10:14:49.358Z,15.30
2022-09-26T10:17:39.363Z,15.30
2022-09-26T10:20:35.070Z,15.30
2022-09-26T10:23:08.108Z,15.50
2022-09-26T10:25:35.439Z,15.70
2022-09-26T10:28:05.288Z,15.90
2022-09-26T10:30:48.570Z,16.00
2022-09-26T10:33:30.931Z,16.00
2022-09-26T10:36:12.488Z,15.90
2022-09-26T10:39:17.375Z,15.60
2022-09-26T10:41:47.644Z,15.30
2022-09-26T10:44:31.036Z,15.10
2022-09-26T10:47:13.696Z,14.80
2022-09-26T10:50:06.391Z,14.30
2022-09-26T10:53:08.267Z,13.80
2022-09-26T10:56:00.111Z,13.60
2022-09-26T10:58:29.899Z,13.50
2022-09-26T11:01:04.044Z,13.50
2022-09-26T11:03:43.079Z,13.70
2022-09-26T11:06:45.818Z,13.70
2022-09-26T11:09:28.033Z,13.70
2022-09-26T11:11:55.539Z,13.90
2022-09-26T11:14:32.547Z,13.80
2022-09-26T11:17:11.799Z,14.00
2022-09-26T11:19:57.653Z,13.90
2022-09-26T11:22:37.218Z,14.00
2022-09-26T11:25:08.928Z,14.10
2022-09-26T11:27:47.051Z,14.10
2022-09-26T11:30:22.375Z,14.30
2022-09-26T11:33:00.836Z,14.10
2022-09-26T11:36:10.863Z,14.30
2022-09-26T11:38:55.450Z,14.60
2022-09-26T11:41:55.576Z,14.80
2022-09-26T11:44:35.868Z,15.00
2022-09-26T11:47:41.780Z,15.00
2022-09-26T11:50:30.195Z,15.20
2022-09-26T11:53:10.291Z,15.50
2022-09-26T11:55:56.433Z,15.80
2022-09-26T11:58:52.888Z,16.00
2022-09-26T12:01:51.130Z,16.20
2022-09-26T12:04:18.776Z,16.00
2022-09-26T12:07:28.107Z,16.30
2022-09-26T12:10:09.548Z,16.40
2022-09-26T12:13:11.556Z,16.60
2022-09-26T12:15:43.372Z,16.70
2022-09-26T12:18:13.399Z,16.90
2022-09-26T12:21:06.088Z,17.20
2022-09-26T12:23:53.398Z,17.10
2022-09-26T12:26:38.000Z,17.30
2022-09-26T12:29:30.109Z,17.30
2022-09-26T12:32:03.222Z,17.10
2022-09-26T12:35:04.960Z,17.00
2022-09-26T12:37:52.713Z,17.00
2022-09-26T12:40:53.336Z,17.10
2022-09-26T12:43:20.514Z,17.10
2022-09-26T12:45:53.460Z,17.10
2022-09-26T12:48:23.785Z,17.30
2022-09-26T12:51:35.407Z,17.20
2022-09-26T12:54:22.232Z,17.10
2022-09-26T12:57:09.103Z,16.90
2022-09-26T12:59:58.104Z,16.90
2022-09-26T13:02:55.687Z,16.80
2022-09-26T13:05:22.918Z,16.70
2022-09-26T13:07:53.947Z,16.50
2022-09-26T13:10:50.421Z,16.50
2022-09-26T13:13:47.251Z,16.40
2022-09-26T13:16:42.866Z,16.30
2022-09-26T13:19:34.814Z,16.30
2022-09-26T13:22:32.765Z,16.30
2022-09-26T13:25:26.900Z,16.10
2022-09-26T13:28:24.109Z,16.10
2022-09-26T13:31:03.354Z,16.30
2022-09-26T13:33:56.147Z,16.40
2022-09-26T13:36:24.585Z,16.60
2022-09-26T13:39:15.110Z,16.70
2022-09-26T13:42:01.239Z,16.70
2022-09-26T13:44:59.634Z,16.70
2022-09-26T13:47:55.038Z,16.90
2022-09-26T13:50:43.608Z,17.00
2022-09-26T13:53:28.735Z,17.10
2022-09-26T13:56:31.127Z,17.10
2022-09-26T13:59:17.963Z,17.00
2022-09-26T14:02:24.415Z,16.90
2022-09-26T14:05:13.099Z,17.00
2022-09-26T14:07:58.893Z,17.00
2022-09-26T14:10:32.245Z,17.00
2022-09-26T14:13:21.652Z,16.90
2022-09-26T14:15:57.689Z,16.80
2022-09-26T14:18:44.009Z,16.70
2022-09-26T14:21:12.771Z,16.60
2022-09-26T14:23:43.041Z,16.70
2022-09-26T14:26:12.773Z,16.50
2022-09-26T14:28:49.920Z,16.40
2022-09-26T14:31:24.089Z,16.30
2022-09-26T14:34:16.119Z,16.10
2022-09-26T14:36:45.456Z,16.10
2022-09-26T14:39:33.304Z,16.30
2022-09-26T14:42:09.268Z,16.10
2022-09-26T14:44:37.758Z,16.10
2022-09-26T14:47:12.732Z,16.00
2022-09-26T14:49:40.441Z,16.00
2022-09-26T14:52:18.883Z,15.80
2022-09-26T14:54:47.477Z,15.80
2022-09-26T14:57:25.614Z,15.90
2022-09-26T14:59:52.896Z,15.80
2022-09-26T15:02:28.533Z,15.90
2022-09-26T15:05:09.853Z,15.90
2022-09-26T15:07:49.760Z,15.80
2022-09-26T15:10:23.598Z,15.80
2022-09-26T15:12:56.924Z,15.80
2022-09-26T15:16:03.350Z,15.90
2022-09-26T15:18:39.437Z,16.00
2022-09-26T15:21:18.859Z,15.90
2022-09-26T15:23:52.083Z,16.00
2022-09-26T15:26:27.185Z,16.00
2022-09-26T15:28:56.794Z,15.90
2022-09-26T15:31:35.052Z,15.90
2022-09-26T15:34:05.008Z,15.90
2022-09-26T15:36:35.284Z,15.90
2022-09-26T15:39:26.200Z,15.90
2022-09-26T15:42:11.806Z,15.90
2022-09-26T15:44:53.590Z,15.90
2022-09-26T15:47:42.827Z,15.90
2022-09-26T15:50:15.552Z,15.80
2022-09-26T15:53:13.510Z,15.70
2022-09-26T15:55:58.158Z,15.50
2022-09-26T15:58:36.183Z,15.50
2022-09-26T16:01:03.772Z,15.40
2022-09-26T16:03:52.509Z,15.30
2022-09-26T16:06:36.194Z,15.40
2022-09-26T16:09:31.411Z,15.30
2022-09-26T16:12:03.296Z,15.30
2022-09-26T16:14:40.154Z,15.20
2022-09-26T16:17:36.444Z,15.10
2022-09-26T16:20:03.690Z,15.10
2022-09-26T16:22:37.068Z,15.00
2022-09-26T16:25:27.627Z,14.90
2022-09-26T16:28:00.973Z,14.80
2022-09-26T16:30:28.473Z,14.70
2022-09-26T16:33:17.140Z,14.70
2022-09-26T16:35:47.181Z,14.70
2022-09-26T16:38:17.368Z,14.60
2022-09-26T16:40:52.488Z,14.50
2022-09-26T16:43:26.896Z,14.40
2022-09-26T16:46:07.404Z,14.30
2022-09-26T16:48:35.124Z,14.20
2022-09-26T16:51:27.159Z,14.10
2022-09-26T16:54:00.551Z,14.00
2022-09-26T16:56:28.246Z,13.80
2022-09-26T16:59:02.011Z,13.70
2022-09-26T17:01:48.406Z,13.60
2022-09-26T17:04:25.332Z,13.50
2022-09-26T17:06:52.886Z,13.40
2022-09-26T17:09:28.161Z,13.30
2022-09-26T17:12:08.295Z,13.30
2022-09-26T17:14:40.603Z,13.20
2022-09-26T17:17:16.182Z,13.00
2022-09-26T17:19:47.465Z,12.90
2022-09-26T17:22:16.794Z,12.80
2022-09-26T17:24:44.275Z,12.80
2022-09-26T17:27:16.104Z,12.70
2022-09-26T17:29:48.660Z,12.70
2022-09-26T17:32:23.071Z,12.60
2022-09-26T17:34:51.594Z,12.60
2022-09-26T17:37:20.334Z,12.60
2022-09-26T17:39:48.068Z,12.60
2022-09-26T17:42:17.065Z,12.60
2022-09-26T17:44:48.121Z,12.50
2022-09-26T17:47:17.250Z,12.50
2022-09-26T17:49:51.565Z,12.50
2022-09-26T17:52:31.264Z,12.50
2022-09-26T17:55:05.821Z,12.60
2022-09-26T17:57:37.101Z,12.60
2022-09-26T18:00:11.392Z,12.70
2022-09-26T18:02:55.968Z,12.70
2022-09-26T18:05:26.491Z,12.70
2022-09-26T18:07:58.183Z,12.70
2022-09-26T18:10:33.728Z,12.70
2022-09-26T18:13:06.398Z,12.60
2022-09-26T18:15:36.770Z,12.60
2022-09-26T18:18:17.677Z,12.60
2022-09-26T18:20:48.710Z,12.60
2022-09-26T18:23:25.639Z,12.60
2022-09-26T18:25:55.903Z,12.60
2022-09-26T18:28:23.643Z,12.60
2022-09-26T18:30:58.135Z,12.60
2022-09-26T18:33:27.869Z,12.60
2022-09-26T18:35:55.328Z,12.60
2022-09-26T18:38:22.558Z,12.60
2022-09-26T18:40:55.413Z,12.60
2022-09-26T18:43:24.980Z,12.70
2022-09-26T18:45:52.531Z,12.70
2022-09-26T18:48:26.225Z,12.60
2022-09-26T18:50:53.980Z,12.60
2022-09-26T18:53:23.269Z,12.60
2022-09-26T18:56:09.660Z,12.60
2022-09-26T18:58:36.928Z,12.50
2022-09-26T19:01:26.229Z,12.50
2022-09-26T19:03:54.680Z,12.60
2022-09-26T19:06:35.521Z,12.50
2022-09-26T19:09:15.095Z,12.50
2022-09-26T19:11:43.088Z,12.50
2022-09-26T19:14:16.168Z,12.50
2022-09-26T19:16:44.814Z,12.50
2022-09-26T19:19:12.731Z,12.50
2022-09-26T19:21:42.417Z,12.40
2022-09-26T19:24:20.752Z,12.40
2022-09-26T19:26:52.496Z,12.40
2022-09-26T19:29:34.808Z,12.40
2022-09-26T19:32:03.857Z,12.40
2022-09-26T19:34:32.858Z,12.40
2022-09-26T19:37:02.906Z,12.40
2022-09-26T19:39:31.656Z,12.40
2022-09-26T19:41:58.887Z,12.40
2022-09-26T19:44:26.069Z,12.40
2022-09-26T19:46:53.283Z,12.30
2022-09-26T19:49:22.897Z,12.30
2022-09-26T19:51:50.100Z,12.30
2022-09-26T19:54:19.408Z,12.30
2022-09-26T19:56:47.157Z,12.30
2022-09-26T19:59:16.300Z,12.30
2022-09-26T20:01:46.410Z,12.30
2022-09-26T20:04:17.170Z,12.30
2022-09-26T20:06:45.860Z,12.20
2022-09-26T20:09:19.598Z,12.20
2022-09-26T20:11:46.807Z,12.20
2022-09-26T20:14:26.040Z,12.10
2022-09-26T20:16:57.355Z,12.10
2022-09-26T20:19:30.524Z,12.10
2022-09-26T20:22:01.816Z,12.10
2022-09-26T20:24:32.095Z,12.00
2022-09-26T20:27:06.837Z,12.00
2022-09-26T20:29:55.201Z,12.10
2022-09-26T20:32:22.390Z,12.00
2022-09-26T20:34:49.599Z,12.00
2022-09-26T20:37:17.777Z,12.00
2022-09-26T20:39:46.847Z,12.10
2022-09-26T20:42:17.629Z,12.10
2022-09-26T20:44:47.573Z,12.00
2022-09-26T20:47:19.744Z,12.00
2022-09-26T20:49:53.801Z,12.00
2022-09-26T20:52:24.675Z,11.90
2022-09-26T20:54:53.153Z,11.90
2022-09-26T20:57:22.141Z,11.80
2022-09-26T20:59:50.271Z,11.80
2022-09-26T21:02:25.371Z,11.80
2022-09-26T21:04:53.541Z,11.80
2022-09-26T21:07:22.182Z,11.90
2022-09-26T21:09:50.279Z,11.80
2022-09-26T21:12:18.054Z,11.80
2022-09-26T21:14:45.287Z,11.80
2022-09-26T21:17:27.704Z,11.80
2022-09-26T21:19:56.306Z,11.80
2022-09-26T21:22:54.020Z,11.70
2022-09-26T21:25:24.245Z,11.70
2022-09-26T21:27:56.498Z,11.60
2022-09-26T21:30:23.840Z,11.60
2022-09-26T21:32:54.880Z,11.60
2022-09-26T21:35:24.931Z,11.50
2022-09-26T21:37:54.564Z,11.50
2022-09-26T21:40:25.107Z,11.50
2022-09-26T21:42:58.671Z,11.50
2022-09-26T21:45:27.926Z,11.50
2022-09-26T21:47:56.824Z,11.50
2022-09-26T21:50:27.336Z,11.40
2022-09-26T21:53:05.606Z,11.40
2022-09-26T21:55:38.577Z,11.40
2022-09-26T21:58:12.911Z,11.50
2022-09-26T22:00:40.444Z,11.50
2022-09-26T22:03:07.698Z,11.50
2022-09-26T22:05:34.952Z,11.40
2022-09-26T22:08:02.196Z,11.40
2022-09-26T22:10:29.608Z,11.40
2022-09-26T22:12:57.012Z,11.40
2022-09-26T22:15:24.260Z,11.40
2022-09-26T22:17:52.641Z,11.30
2022-09-26T22:20:19.988Z,11.40
2022-09-26T22:22:47.169Z,11.40
2022-09-26T22:25:14.670Z,11.40
2022-09-26T22:27:41.914Z,11.40
2022-09-26T22:30:09.714Z,11.40
2022-09-26T22:32:36.959Z,11.40
2022-09-26T22:35:04.809Z,11.40
2022-09-26T22:37:32.179Z,11.40
2022-09-26T22:39:59.399Z,11.40
2022-09-26T22:42:26.695Z,11.40
2022-09-26T22:44:53.908Z,11.40
2022-09-26T22:47:21.155Z,11.40
2022-09-26T22:49:48.548Z,11.40
2022-09-26T22:52:15.761Z,11.40
2022-09-26T22:54:42.943Z,11.40
2022-09-26T22:57:10.223Z,11.40
2022-09-26T22:59:38.333Z,11.40
2022-09-26T23:02:05.648Z,11.40
2022-09-26T23:04:50.786Z,11.30
2022-09-26T23:07:19.776Z,11.30
2022-09-26T23:09:47.213Z,11.30
2022-09-26T23:12:14.630Z,11.30
2022-09-26T23:14:41.881Z,11.40
2022-09-26T23:17:09.187Z,11.40
2022-09-26T23:19:36.914Z,11.40
2022-09-26T23:22:04.381Z,11.40
2022-09-26T23:24:31.769Z,11.40
2022-09-26T23:27:00.118Z,11.40
2022-09-26T23:29:29.465Z,11.40
2022-09-26T23:31:57.757Z,11.40
2022-09-26T23:34:24.988Z,11.40
2022-09-26T23:36:52.196Z,11.30
2022-09-26T23:39:19.381Z,11.30
2022-09-26T23:41:46.635Z,11.20
2022-09-26T23:44:13.795Z,11.20
2022-09-26T23:46:41.173Z,11.20
2022-09-26T23:49:08.580Z,11.20
2022-09-26T23:51:35.952Z,11.30
2022-09-26T23:54:03.183Z,11.20
2022-09-26T23:56:30.452Z,11.20
2022-09-26T23:58:57.786Z,11.20
